sensor_id;sensor_type;location;lat;lon;timestamp;P1;durP1;ratioP1;P2;durP2;ratioP2
3099;SDS011;1560;52.746;13.474;2023-03-11T00:01:38;46.37;;;21.95;;
3099;SDS011;1560;52.746;13.474;2023-03-11T00:04:07;43.90;;;21.33;;
3099;SDS011;1560;52.746;13.474;2023-03-11T00:06:37;47.78;;;21.85;;
3099;SDS011;1560;52.746;13.474;2023-03-11T00:09:06;44.08;;;22.25;;
3099;SDS011;1560;52.746;13.474;2023-03-11T00:14:12;42.67;;;21.57;;
3099;SDS011;1560;52.746;13.474;2023-03-11T00:16:40;40.58;;;19.45;;
3099;SDS011;1560;52.746;13.474;2023-03-11T00:19:09;39.20;;;20.08;;
3099;SDS011;1560;52.746;13.474;2023-03-11T00:21:47;39.35;;;20.00;;
3099;SDS011;1560;52.746;13.474;2023-03-11T00:24:16;40.05;;;21.02;;
3099;SDS011;1560;52.746;13.474;2023-03-11T00:26:45;38.80;;;19.80;;
3099;SDS011;1560;52.746;13.474;2023-03-11T00:29:13;36.13;;;20.48;;
3099;SDS011;1560;52.746;13.474;2023-03-11T00:31:42;37.45;;;20.25;;
3099;SDS011;1560;52.746;13.474;2023-03-11T00:34:11;36.42;;;20.72;;
3099;SDS011;1560;52.746;13.474;2023-03-11T00:36:40;43.30;;;21.40;;
3099;SDS011;1560;52.746;13.474;2023-03-11T00:39:09;40.65;;;22.40;;
3099;SDS011;1560;52.746;13.474;2023-03-11T00:41:47;37.80;;;20.80;;
3099;SDS011;1560;52.746;13.474;2023-03-11T00:44:16;46.73;;;24.00;;
3099;SDS011;1560;52.746;13.474;2023-03-11T00:46:45;41.13;;;22.62;;
3099;SDS011;1560;52.746;13.474;2023-03-11T00:51:50;46.50;;;24.18;;
3099;SDS011;1560;52.746;13.474;2023-03-11T00:54:19;48.35;;;24.63;;
3099;SDS011;1560;52.746;13.474;2023-03-11T00:56:47;45.65;;;24.55;;
3099;SDS011;1560;52.746;13.474;2023-03-11T00:59:16;50.73;;;24.45;;
3099;SDS011;1560;52.746;13.474;2023-03-11T01:01:45;47.23;;;23.80;;
3099;SDS011;1560;52.746;13.474;2023-03-11T01:04:14;43.83;;;22.35;;
3099;SDS011;1560;52.746;13.474;2023-03-11T01:06:43;39.40;;;22.52;;
3099;SDS011;1560;52.746;13.474;2023-03-11T01:09:12;39.50;;;21.15;;
3099;SDS011;1560;52.746;13.474;2023-03-11T01:11:40;47.38;;;23.30;;
3099;SDS011;1560;52.746;13.474;2023-03-11T01:14:09;42.23;;;22.42;;
3099;SDS011;1560;52.746;13.474;2023-03-11T01:16:38;42.23;;;20.85;;
3099;SDS011;1560;52.746;13.474;2023-03-11T01:19:07;40.38;;;21.50;;
3099;SDS011;1560;52.746;13.474;2023-03-11T01:24:12;42.83;;;21.00;;
3099;SDS011;1560;52.746;13.474;2023-03-11T01:26:41;35.58;;;19.20;;
3099;SDS011;1560;52.746;13.474;2023-03-11T01:29:10;37.17;;;19.27;;
3099;SDS011;1560;52.746;13.474;2023-03-11T01:31:39;31.10;;;17.42;;
3099;SDS011;1560;52.746;13.474;2023-03-11T01:36:44;28.05;;;14.98;;
3099;SDS011;1560;52.746;13.474;2023-03-11T01:39:13;28.67;;;14.95;;
3099;SDS011;1560;52.746;13.474;2023-03-11T01:41:42;23.35;;;13.68;;
3099;SDS011;1560;52.746;13.474;2023-03-11T01:44:11;23.15;;;13.05;;
3099;SDS011;1560;52.746;13.474;2023-03-11T01:52:24;16.25;;;9.13;;
3099;SDS011;1560;52.746;13.474;2023-03-11T01:54:53;17.60;;;8.90;;
3099;SDS011;1560;52.746;13.474;2023-03-11T01:59:59;11.73;;;7.05;;
3099;SDS011;1560;52.746;13.474;2023-03-11T02:02:33;10.38;;;6.42;;
3099;SDS011;1560;52.746;13.474;2023-03-11T02:05:03;13.50;;;6.25;;
3099;SDS011;1560;52.746;13.474;2023-03-11T02:07:32;7.30;;;4.45;;
3099;SDS011;1560;52.746;13.474;2023-03-11T02:10:01;5.50;;;4.00;;
3099;SDS011;1560;52.746;13.474;2023-03-11T02:12:33;5.97;;;3.70;;
3099;SDS011;1560;52.746;13.474;2023-03-11T02:15:03;5.00;;;2.70;;
3099;SDS011;1560;52.746;13.474;2023-03-11T02:17:42;4.90;;;3.27;;
3099;SDS011;1560;52.746;13.474;2023-03-11T02:20:17;4.15;;;2.70;;
3099;SDS011;1560;52.746;13.474;2023-03-11T02:22:56;6.85;;;3.42;;
3099;SDS011;1560;52.746;13.474;2023-03-11T02:25:29;5.78;;;3.40;;
3099;SDS011;1560;52.746;13.474;2023-03-11T02:27:59;6.22;;;3.60;;
3099;SDS011;1560;52.746;13.474;2023-03-11T02:33:06;6.65;;;3.70;;
3099;SDS011;1560;52.746;13.474;2023-03-11T02:35:35;5.83;;;3.83;;
3099;SDS011;1560;52.746;13.474;2023-03-11T02:38:04;4.95;;;3.50;;
3099;SDS011;1560;52.746;13.474;2023-03-11T02:43:18;6.85;;;4.62;;
3099;SDS011;1560;52.746;13.474;2023-03-11T02:45:49;5.72;;;4.08;;
3099;SDS011;1560;52.746;13.474;2023-03-11T02:48:19;6.12;;;3.77;;
3099;SDS011;1560;52.746;13.474;2023-03-11T02:50:50;6.97;;;3.87;;
3099;SDS011;1560;52.746;13.474;2023-03-11T02:53:19;7.42;;;4.75;;
3099;SDS011;1560;52.746;13.474;2023-03-11T02:55:48;5.90;;;3.52;;
3099;SDS011;1560;52.746;13.474;2023-03-11T02:58:17;8.48;;;3.95;;
3099;SDS011;1560;52.746;13.474;2023-03-11T03:00:46;7.50;;;4.25;;
3099;SDS011;1560;52.746;13.474;2023-03-11T03:03:15;6.42;;;4.30;;
3099;SDS011;1560;52.746;13.474;2023-03-11T03:05:44;7.00;;;4.25;;
3099;SDS011;1560;52.746;13.474;2023-03-11T03:08:13;6.92;;;4.20;;
3099;SDS011;1560;52.746;13.474;2023-03-11T03:13:18;8.93;;;4.58;;
3099;SDS011;1560;52.746;13.474;2023-03-11T03:15:47;8.43;;;5.00;;
3099;SDS011;1560;52.746;13.474;2023-03-11T03:18:16;8.45;;;4.72;;
3099;SDS011;1560;52.746;13.474;2023-03-11T03:20:45;7.87;;;5.17;;
3099;SDS011;1560;52.746;13.474;2023-03-11T03:23:14;7.55;;;4.35;;
3099;SDS011;1560;52.746;13.474;2023-03-11T03:25:43;9.33;;;5.10;;
3099;SDS011;1560;52.746;13.474;2023-03-11T03:28:12;9.73;;;5.35;;
3099;SDS011;1560;52.746;13.474;2023-03-11T03:30:41;8.88;;;5.55;;
3099;SDS011;1560;52.746;13.474;2023-03-11T03:33:19;11.55;;;6.65;;
3099;SDS011;1560;52.746;13.474;2023-03-11T03:35:48;10.35;;;5.60;;
3099;SDS011;1560;52.746;13.474;2023-03-11T03:38:16;10.75;;;6.60;;
3099;SDS011;1560;52.746;13.474;2023-03-11T03:40:46;10.80;;;6.17;;
3099;SDS011;1560;52.746;13.474;2023-03-11T03:43:15;12.88;;;6.92;;
3099;SDS011;1560;52.746;13.474;2023-03-11T03:45:44;8.58;;;5.50;;
3099;SDS011;1560;52.746;13.474;2023-03-11T03:48:15;13.95;;;7.95;;
3099;SDS011;1560;52.746;13.474;2023-03-11T03:50:43;12.60;;;6.70;;
3099;SDS011;1560;52.746;13.474;2023-03-11T03:53:12;11.12;;;6.05;;
3099;SDS011;1560;52.746;13.474;2023-03-11T03:58:17;10.48;;;6.08;;
3099;SDS011;1560;52.746;13.474;2023-03-11T04:00:46;11.65;;;6.50;;
3099;SDS011;1560;52.746;13.474;2023-03-11T04:03:15;11.00;;;6.80;;
3099;SDS011;1560;52.746;13.474;2023-03-11T04:08:21;13.72;;;6.15;;
3099;SDS011;1560;52.746;13.474;2023-03-11T04:10:55;10.15;;;5.80;;
3099;SDS011;1560;52.746;13.474;2023-03-11T04:16:02;10.00;;;6.00;;
3099;SDS011;1560;52.746;13.474;2023-03-11T04:18:33;11.00;;;6.62;;
3099;SDS011;1560;52.746;13.474;2023-03-11T04:21:04;13.75;;;6.33;;
3099;SDS011;1560;52.746;13.474;2023-03-11T04:23:33;11.80;;;5.58;;
3099;SDS011;1560;52.746;13.474;2023-03-11T04:26:02;9.80;;;6.10;;
3099;SDS011;1560;52.746;13.474;2023-03-11T04:28:31;9.15;;;5.75;;
3099;SDS011;1560;52.746;13.474;2023-03-11T04:31:00;10.28;;;6.15;;
3099;SDS011;1560;52.746;13.474;2023-03-11T04:36:07;7.97;;;4.83;;
3099;SDS011;1560;52.746;13.474;2023-03-11T04:41:15;10.03;;;5.03;;
3099;SDS011;1560;52.746;13.474;2023-03-11T04:43:43;8.05;;;4.95;;
3099;SDS011;1560;52.746;13.474;2023-03-11T04:46:12;8.08;;;4.87;;
3099;SDS011;1560;52.746;13.474;2023-03-11T04:48:41;9.43;;;4.75;;
3099;SDS011;1560;52.746;13.474;2023-03-11T04:51:10;6.53;;;3.75;;
3099;SDS011;1560;52.746;13.474;2023-03-11T04:53:39;6.83;;;4.90;;
3099;SDS011;1560;52.746;13.474;2023-03-11T04:56:08;9.28;;;4.80;;
3099;SDS011;1560;52.746;13.474;2023-03-11T05:01:13;8.78;;;5.03;;
3099;SDS011;1560;52.746;13.474;2023-03-11T05:06:19;6.33;;;4.30;;
3099;SDS011;1560;52.746;13.474;2023-03-11T05:08:48;7.72;;;4.53;;
3099;SDS011;1560;52.746;13.474;2023-03-11T05:13:53;8.08;;;5.30;;
3099;SDS011;1560;52.746;13.474;2023-03-11T05:16:22;9.65;;;5.22;;
3099;SDS011;1560;52.746;13.474;2023-03-11T05:18:51;7.83;;;4.58;;
3099;SDS011;1560;52.746;13.474;2023-03-11T05:21:20;10.23;;;5.40;;
3099;SDS011;1560;52.746;13.474;2023-03-11T05:23:49;8.95;;;4.47;;
3099;SDS011;1560;52.746;13.474;2023-03-11T05:26:17;9.75;;;5.85;;
3099;SDS011;1560;52.746;13.474;2023-03-11T05:28:46;5.85;;;4.83;;
3099;SDS011;1560;52.746;13.474;2023-03-11T05:31:15;7.47;;;4.35;;
3099;SDS011;1560;52.746;13.474;2023-03-11T05:36:20;7.28;;;4.78;;
3099;SDS011;1560;52.746;13.474;2023-03-11T05:38:49;8.90;;;4.33;;
3099;SDS011;1560;52.746;13.474;2023-03-11T05:43:55;9.58;;;5.28;;
3099;SDS011;1560;52.746;13.474;2023-03-11T05:46:24;7.65;;;4.47;;
3099;SDS011;1560;52.746;13.474;2023-03-11T05:48:53;7.80;;;4.70;;
3099;SDS011;1560;52.746;13.474;2023-03-11T05:51:22;7.33;;;4.47;;
3099;SDS011;1560;52.746;13.474;2023-03-11T05:56:27;7.97;;;4.55;;
3099;SDS011;1560;52.746;13.474;2023-03-11T05:58:56;8.10;;;4.50;;
3099;SDS011;1560;52.746;13.474;2023-03-11T06:04:02;6.70;;;4.20;;
3099;SDS011;1560;52.746;13.474;2023-03-11T06:06:31;7.05;;;4.62;;
3099;SDS011;1560;52.746;13.474;2023-03-11T06:09:00;6.50;;;4.10;;
3099;SDS011;1560;52.746;13.474;2023-03-11T06:14:06;10.60;;;4.70;;
3099;SDS011;1560;52.746;13.474;2023-03-11T06:16:37;8.00;;;4.85;;
3099;SDS011;1560;52.746;13.474;2023-03-11T06:19:06;8.60;;;5.67;;
3099;SDS011;1560;52.746;13.474;2023-03-11T06:24:11;10.20;;;5.70;;
3099;SDS011;1560;52.746;13.474;2023-03-11T06:26:41;11.38;;;5.22;;
3099;SDS011;1560;52.746;13.474;2023-03-11T06:29:18;9.43;;;5.75;;
3099;SDS011;1560;52.746;13.474;2023-03-11T06:31:49;10.20;;;5.72;;
3099;SDS011;1560;52.746;13.474;2023-03-11T06:34:27;7.78;;;5.12;;
3099;SDS011;1560;52.746;13.474;2023-03-11T06:36:56;8.65;;;5.40;;
3099;SDS011;1560;52.746;13.474;2023-03-11T06:39:26;7.62;;;5.15;;
3099;SDS011;1560;52.746;13.474;2023-03-11T06:41:55;7.83;;;4.80;;
3099;SDS011;1560;52.746;13.474;2023-03-11T06:44:24;11.12;;;5.12;;
3099;SDS011;1560;52.746;13.474;2023-03-11T06:46:52;9.53;;;5.72;;
3099;SDS011;1560;52.746;13.474;2023-03-11T06:49:30;13.18;;;6.95;;
3099;SDS011;1560;52.746;13.474;2023-03-11T06:51:59;9.65;;;6.05;;
3099;SDS011;1560;52.746;13.474;2023-03-11T06:57:06;14.05;;;8.18;;
3099;SDS011;1560;52.746;13.474;2023-03-11T06:59:36;9.55;;;5.95;;
3099;SDS011;1560;52.746;13.474;2023-03-11T07:02:06;4.50;;;3.15;;
3099;SDS011;1560;52.746;13.474;2023-03-11T07:04:38;5.83;;;3.70;;
3099;SDS011;1560;52.746;13.474;2023-03-11T07:07:07;10.55;;;5.87;;
3099;SDS011;1560;52.746;13.474;2023-03-11T07:12:12;9.93;;;5.45;;
3099;SDS011;1560;52.746;13.474;2023-03-11T07:14:43;9.13;;;5.22;;
3099;SDS011;1560;52.746;13.474;2023-03-11T07:17:12;13.30;;;7.50;;
3099;SDS011;1560;52.746;13.474;2023-03-11T07:19:41;7.50;;;5.97;;
3099;SDS011;1560;52.746;13.474;2023-03-11T07:22:10;7.35;;;4.87;;
3099;SDS011;1560;52.746;13.474;2023-03-11T07:24:47;8.48;;;5.05;;
3099;SDS011;1560;52.746;13.474;2023-03-11T07:27:16;9.40;;;5.80;;
3099;SDS011;1560;52.746;13.474;2023-03-11T07:29:46;10.48;;;5.95;;
3099;SDS011;1560;52.746;13.474;2023-03-11T07:32:15;12.78;;;6.95;;
3099;SDS011;1560;52.746;13.474;2023-03-11T07:34:44;10.32;;;6.60;;
3099;SDS011;1560;52.746;13.474;2023-03-11T07:37:22;10.18;;;6.10;;
3099;SDS011;1560;52.746;13.474;2023-03-11T07:39:51;14.78;;;6.55;;
3099;SDS011;1560;52.746;13.474;2023-03-11T07:42:20;17.20;;;8.18;;
3099;SDS011;1560;52.746;13.474;2023-03-11T07:44:49;15.43;;;7.90;;
3099;SDS011;1560;52.746;13.474;2023-03-11T07:47:18;10.32;;;6.65;;
3099;SDS011;1560;52.746;13.474;2023-03-11T07:49:47;12.73;;;6.47;;
3099;SDS011;1560;52.746;13.474;2023-03-11T07:52:16;18.05;;;6.95;;
3099;SDS011;1560;52.746;13.474;2023-03-11T07:57:21;10.48;;;6.25;;
3099;SDS011;1560;52.746;13.474;2023-03-11T07:59:50;10.85;;;5.80;;
3099;SDS011;1560;52.746;13.474;2023-03-11T08:02:20;14.30;;;6.37;;
3099;SDS011;1560;52.746;13.474;2023-03-11T08:04:49;10.80;;;6.60;;
3099;SDS011;1560;52.746;13.474;2023-03-11T08:07:18;11.63;;;6.53;;
3099;SDS011;1560;52.746;13.474;2023-03-11T08:12:23;11.78;;;6.35;;
3099;SDS011;1560;52.746;13.474;2023-03-11T08:14:52;9.80;;;6.75;;
3099;SDS011;1560;52.746;13.474;2023-03-11T08:17:21;12.13;;;6.33;;
3099;SDS011;1560;52.746;13.474;2023-03-11T08:19:50;10.32;;;6.62;;
3099;SDS011;1560;52.746;13.474;2023-03-11T08:22:19;14.90;;;7.75;;
3099;SDS011;1560;52.746;13.474;2023-03-11T08:27:27;10.80;;;7.35;;
3099;SDS011;1560;52.746;13.474;2023-03-11T08:29:56;11.22;;;7.00;;
3099;SDS011;1560;52.746;13.474;2023-03-11T08:32:25;10.70;;;6.87;;
3099;SDS011;1560;52.746;13.474;2023-03-11T08:34:56;12.70;;;7.85;;
3099;SDS011;1560;52.746;13.474;2023-03-11T08:37:25;13.65;;;7.22;;
3099;SDS011;1560;52.746;13.474;2023-03-11T08:42:30;11.10;;;6.78;;
3099;SDS011;1560;52.746;13.474;2023-03-11T08:44:59;10.90;;;5.83;;
3099;SDS011;1560;52.746;13.474;2023-03-11T08:47:32;10.00;;;6.50;;
3099;SDS011;1560;52.746;13.474;2023-03-11T08:50:01;8.88;;;6.05;;
3099;SDS011;1560;52.746;13.474;2023-03-11T08:52:31;11.57;;;6.00;;
3099;SDS011;1560;52.746;13.474;2023-03-11T08:55:00;8.13;;;6.20;;
3099;SDS011;1560;52.746;13.474;2023-03-11T08:57:37;10.80;;;6.65;;
3099;SDS011;1560;52.746;13.474;2023-03-11T09:00:09;10.18;;;5.78;;
3099;SDS011;1560;52.746;13.474;2023-03-11T09:02:39;10.30;;;5.80;;
3099;SDS011;1560;52.746;13.474;2023-03-11T09:05:09;9.63;;;5.50;;
3099;SDS011;1560;52.746;13.474;2023-03-11T09:10:15;8.35;;;5.62;;
3099;SDS011;1560;52.746;13.474;2023-03-11T09:15:21;7.90;;;5.45;;
3099;SDS011;1560;52.746;13.474;2023-03-11T09:17:49;7.12;;;5.45;;
3099;SDS011;1560;52.746;13.474;2023-03-11T09:20:19;13.85;;;7.55;;
3099;SDS011;1560;52.746;13.474;2023-03-11T09:25:25;11.93;;;5.92;;
3099;SDS011;1560;52.746;13.474;2023-03-11T09:27:54;8.50;;;5.75;;
3099;SDS011;1560;52.746;13.474;2023-03-11T09:30:23;11.33;;;6.42;;
3099;SDS011;1560;52.746;13.474;2023-03-11T09:35:28;7.67;;;5.47;;
3099;SDS011;1560;52.746;13.474;2023-03-11T09:37:58;9.58;;;7.15;;
3099;SDS011;1560;52.746;13.474;2023-03-11T09:40:27;9.90;;;6.17;;
3099;SDS011;1560;52.746;13.474;2023-03-11T09:43:03;7.60;;;5.70;;
3099;SDS011;1560;52.746;13.474;2023-03-11T09:45:35;7.12;;;5.45;;
3099;SDS011;1560;52.746;13.474;2023-03-11T09:50:46;8.70;;;5.25;;
3099;SDS011;1560;52.746;13.474;2023-03-11T09:53:23;7.40;;;4.60;;
3099;SDS011;1560;52.746;13.474;2023-03-11T09:55:55;8.23;;;6.17;;
3099;SDS011;1560;52.746;13.474;2023-03-11T09:58:30;7.95;;;4.70;;
3099;SDS011;1560;52.746;13.474;2023-03-11T10:03:40;9.70;;;5.75;;
3099;SDS011;1560;52.746;13.474;2023-03-11T10:06:12;10.03;;;5.30;;
3099;SDS011;1560;52.746;13.474;2023-03-11T10:08:44;6.78;;;4.85;;
3099;SDS011;1560;52.746;13.474;2023-03-11T10:11:18;7.03;;;4.55;;
3099;SDS011;1560;52.746;13.474;2023-03-11T10:16:32;6.85;;;5.83;;
3099;SDS011;1560;52.746;13.474;2023-03-11T10:19:05;11.18;;;5.87;;
3099;SDS011;1560;52.746;13.474;2023-03-11T10:24:32;8.30;;;5.00;;
3099;SDS011;1560;52.746;13.474;2023-03-11T10:26:56;7.35;;;4.90;;
3099;SDS011;1560;52.746;13.474;2023-03-11T10:32:05;7.58;;;5.78;;
3099;SDS011;1560;52.746;13.474;2023-03-11T10:34:38;7.00;;;4.03;;
3099;SDS011;1560;52.746;13.474;2023-03-11T10:39:46;7.85;;;3.98;;
3099;SDS011;1560;52.746;13.474;2023-03-11T10:42:16;4.87;;;4.10;;
3099;SDS011;1560;52.746;13.474;2023-03-11T10:44:48;5.85;;;3.65;;
3099;SDS011;1560;52.746;13.474;2023-03-11T10:47:17;6.47;;;3.17;;
3099;SDS011;1560;52.746;13.474;2023-03-11T10:52:24;8.38;;;3.75;;
3099;SDS011;1560;52.746;13.474;2023-03-11T10:54:58;5.85;;;3.95;;
3099;SDS011;1560;52.746;13.474;2023-03-11T10:57:31;4.65;;;3.47;;
3099;SDS011;1560;52.746;13.474;2023-03-11T11:00:10;6.45;;;3.75;;
3099;SDS011;1560;52.746;13.474;2023-03-11T11:02:48;5.03;;;3.40;;
3099;SDS011;1560;52.746;13.474;2023-03-11T11:05:26;3.62;;;2.92;;
3099;SDS011;1560;52.746;13.474;2023-03-11T11:08:06;8.73;;;3.20;;
3099;SDS011;1560;52.746;13.474;2023-03-11T11:10:50;5.50;;;3.15;;
3099;SDS011;1560;52.746;13.474;2023-03-11T11:13:20;5.05;;;3.50;;
3099;SDS011;1560;52.746;13.474;2023-03-11T11:15:51;5.20;;;3.55;;
3099;SDS011;1560;52.746;13.474;2023-03-11T11:18:23;5.62;;;4.10;;
3099;SDS011;1560;52.746;13.474;2023-03-11T11:23:33;3.35;;;2.98;;
3099;SDS011;1560;52.746;13.474;2023-03-11T11:26:14;3.75;;;3.12;;
3099;SDS011;1560;52.746;13.474;2023-03-11T11:28:44;5.85;;;3.35;;
3099;SDS011;1560;52.746;13.474;2023-03-11T11:33:55;4.65;;;3.65;;
3099;SDS011;1560;52.746;13.474;2023-03-11T11:36:26;8.38;;;4.28;;
3099;SDS011;1560;52.746;13.474;2023-03-11T11:38:57;7.72;;;4.58;;
3099;SDS011;1560;52.746;13.474;2023-03-11T11:41:30;6.25;;;3.55;;
3099;SDS011;1560;52.746;13.474;2023-03-11T11:44:02;5.15;;;3.70;;
3099;SDS011;1560;52.746;13.474;2023-03-11T11:46:34;5.72;;;3.75;;
3099;SDS011;1560;52.746;13.474;2023-03-11T11:49:08;5.97;;;4.33;;
3099;SDS011;1560;52.746;13.474;2023-03-11T11:51:40;4.53;;;3.80;;
3099;SDS011;1560;52.746;13.474;2023-03-11T11:56:52;4.35;;;3.50;;
3099;SDS011;1560;52.746;13.474;2023-03-11T11:59:23;8.00;;;4.80;;
3099;SDS011;1560;52.746;13.474;2023-03-11T12:01:56;7.78;;;4.17;;
3099;SDS011;1560;52.746;13.474;2023-03-11T12:04:32;5.90;;;4.72;;
3099;SDS011;1560;52.746;13.474;2023-03-11T12:09:50;6.60;;;4.47;;
3099;SDS011;1560;52.746;13.474;2023-03-11T12:12:24;6.65;;;4.45;;
3099;SDS011;1560;52.746;13.474;2023-03-11T12:14:57;5.62;;;4.15;;
3099;SDS011;1560;52.746;13.474;2023-03-11T12:17:29;8.70;;;4.95;;
3099;SDS011;1560;52.746;13.474;2023-03-11T12:20:02;7.55;;;5.50;;
3099;SDS011;1560;52.746;13.474;2023-03-11T12:25:57;9.35;;;6.55;;
3099;SDS011;1560;52.746;13.474;2023-03-11T12:28:33;13.38;;;7.42;;
3099;SDS011;1560;52.746;13.474;2023-03-11T12:31:08;13.13;;;7.83;;
3099;SDS011;1560;52.746;13.474;2023-03-11T12:33:39;11.05;;;7.87;;
3099;SDS011;1560;52.746;13.474;2023-03-11T12:36:23;11.05;;;7.85;;
3099;SDS011;1560;52.746;13.474;2023-03-11T12:38:54;9.85;;;7.58;;
3099;SDS011;1560;52.746;13.474;2023-03-11T12:41:31;12.25;;;7.85;;
3099;SDS011;1560;52.746;13.474;2023-03-11T12:44:04;13.80;;;8.05;;
3099;SDS011;1560;52.746;13.474;2023-03-11T12:49:46;15.25;;;8.33;;
3099;SDS011;1560;52.746;13.474;2023-03-11T12:52:20;12.60;;;8.28;;
3099;SDS011;1560;52.746;13.474;2023-03-11T13:01:08;12.93;;;9.18;;
3099;SDS011;1560;52.746;13.474;2023-03-11T13:10:10;15.20;;;9.95;;
3099;SDS011;1560;52.746;13.474;2023-03-11T13:12:45;14.45;;;9.93;;
3099;SDS011;1560;52.746;13.474;2023-03-11T13:15:26;16.10;;;10.88;;
3099;SDS011;1560;52.746;13.474;2023-03-11T13:17:58;13.83;;;11.60;;
3099;SDS011;1560;52.746;13.474;2023-03-11T13:23:34;13.75;;;9.23;;
3099;SDS011;1560;52.746;13.474;2023-03-11T13:26:14;21.93;;;13.88;;
3099;SDS011;1560;52.746;13.474;2023-03-11T13:29:10;18.90;;;10.95;;
3099;SDS011;1560;52.746;13.474;2023-03-11T13:32:00;15.75;;;10.58;;
3099;SDS011;1560;52.746;13.474;2023-03-11T13:37:17;15.58;;;9.73;;
3099;SDS011;1560;52.746;13.474;2023-03-11T13:39:52;12.35;;;9.25;;
3099;SDS011;1560;52.746;13.474;2023-03-11T13:42:30;12.70;;;8.48;;
3099;SDS011;1560;52.746;13.474;2023-03-11T13:45:01;12.88;;;8.83;;
3099;SDS011;1560;52.746;13.474;2023-03-11T13:47:40;14.38;;;9.33;;
3099;SDS011;1560;52.746;13.474;2023-03-11T13:50:14;14.80;;;8.50;;
3099;SDS011;1560;52.746;13.474;2023-03-11T13:52:46;14.40;;;8.28;;
3099;SDS011;1560;52.746;13.474;2023-03-11T13:55:19;12.50;;;8.50;;
3099;SDS011;1560;52.746;13.474;2023-03-11T14:00:27;12.35;;;7.60;;
3099;SDS011;1560;52.746;13.474;2023-03-11T14:03:00;13.03;;;8.93;;
3099;SDS011;1560;52.746;13.474;2023-03-11T14:05:31;11.10;;;7.42;;
3099;SDS011;1560;52.746;13.474;2023-03-11T14:08:12;11.70;;;7.62;;
3099;SDS011;1560;52.746;13.474;2023-03-11T14:10:55;14.18;;;9.23;;
3099;SDS011;1560;52.746;13.474;2023-03-11T14:13:26;9.83;;;6.85;;
3099;SDS011;1560;52.746;13.474;2023-03-11T14:18:39;11.60;;;7.85;;
3099;SDS011;1560;52.746;13.474;2023-03-11T14:23:49;9.15;;;6.35;;
3099;SDS011;1560;52.746;13.474;2023-03-11T14:26:20;8.98;;;6.00;;
3099;SDS011;1560;52.746;13.474;2023-03-11T14:28:51;8.75;;;5.85;;
3099;SDS011;1560;52.746;13.474;2023-03-11T14:33:59;9.28;;;6.45;;
3099;SDS011;1560;52.746;13.474;2023-03-11T14:36:30;9.63;;;6.65;;
3099;SDS011;1560;52.746;13.474;2023-03-11T14:39:21;9.18;;;6.55;;
3099;SDS011;1560;52.746;13.474;2023-03-11T14:44:28;10.30;;;5.85;;
3099;SDS011;1560;52.746;13.474;2023-03-11T14:47:02;13.25;;;7.90;;
3099;SDS011;1560;52.746;13.474;2023-03-11T14:49:35;6.33;;;5.30;;
3099;SDS011;1560;52.746;13.474;2023-03-11T14:52:07;8.95;;;5.92;;
3099;SDS011;1560;52.746;13.474;2023-03-11T14:54:39;9.10;;;6.20;;
3099;SDS011;1560;52.746;13.474;2023-03-11T14:57:14;10.55;;;8.40;;
3099;SDS011;1560;52.746;13.474;2023-03-11T14:59:45;7.67;;;5.12;;
3099;SDS011;1560;52.746;13.474;2023-03-11T15:02:29;11.78;;;8.23;;
3099;SDS011;1560;52.746;13.474;2023-03-11T15:05:10;7.50;;;5.80;;
3099;SDS011;1560;52.746;13.474;2023-03-11T15:07:42;8.33;;;5.58;;
3099;SDS011;1560;52.746;13.474;2023-03-11T15:10:13;10.90;;;8.63;;
3099;SDS011;1560;52.746;13.474;2023-03-11T15:12:42;10.10;;;6.90;;
3099;SDS011;1560;52.746;13.474;2023-03-11T15:15:22;12.85;;;6.95;;
3099;SDS011;1560;52.746;13.474;2023-03-11T15:17:53;8.88;;;5.62;;
3099;SDS011;1560;52.746;13.474;2023-03-11T15:20:27;11.68;;;8.23;;
3099;SDS011;1560;52.746;13.474;2023-03-11T15:25:35;8.33;;;5.65;;
3099;SDS011;1560;52.746;13.474;2023-03-11T15:28:22;7.72;;;6.10;;
3099;SDS011;1560;52.746;13.474;2023-03-11T15:33:50;6.97;;;4.05;;
3099;SDS011;1560;52.746;13.474;2023-03-11T15:36:29;6.30;;;4.30;;
3099;SDS011;1560;52.746;13.474;2023-03-11T15:39:10;8.93;;;6.30;;
3099;SDS011;1560;52.746;13.474;2023-03-11T15:41:42;10.78;;;7.10;;
3099;SDS011;1560;52.746;13.474;2023-03-11T15:44:23;9.78;;;7.50;;
3099;SDS011;1560;52.746;13.474;2023-03-11T15:46:54;7.90;;;6.12;;
3099;SDS011;1560;52.746;13.474;2023-03-11T15:49:25;9.90;;;6.03;;
3099;SDS011;1560;52.746;13.474;2023-03-11T15:51:56;6.10;;;5.00;;
3099;SDS011;1560;52.746;13.474;2023-03-11T15:54:26;5.60;;;3.90;;
3099;SDS011;1560;52.746;13.474;2023-03-11T15:57:13;6.17;;;4.20;;
3099;SDS011;1560;52.746;13.474;2023-03-11T16:12:54;6.35;;;3.90;;
3099;SDS011;1560;52.746;13.474;2023-03-11T16:15:24;7.17;;;4.70;;
3099;SDS011;1560;52.746;13.474;2023-03-11T16:17:56;6.00;;;4.25;;
3099;SDS011;1560;52.746;13.474;2023-03-11T16:23:05;7.15;;;4.20;;
3099;SDS011;1560;52.746;13.474;2023-03-11T16:25:38;5.22;;;3.72;;
3099;SDS011;1560;52.746;13.474;2023-03-11T16:28:11;5.87;;;3.27;;
3099;SDS011;1560;52.746;13.474;2023-03-11T16:33:34;5.35;;;3.67;;
3099;SDS011;1560;52.746;13.474;2023-03-11T16:36:06;5.90;;;3.58;;
3099;SDS011;1560;52.746;13.474;2023-03-11T16:38:40;7.12;;;4.03;;
3099;SDS011;1560;52.746;13.474;2023-03-11T16:41:19;6.55;;;4.10;;
3099;SDS011;1560;52.746;13.474;2023-03-11T16:43:49;7.67;;;4.10;;
3099;SDS011;1560;52.746;13.474;2023-03-11T16:49:06;6.72;;;4.05;;
3099;SDS011;1560;52.746;13.474;2023-03-11T16:51:36;8.45;;;4.00;;
3099;SDS011;1560;52.746;13.474;2023-03-11T16:54:05;5.55;;;4.08;;
3099;SDS011;1560;52.746;13.474;2023-03-11T16:56:34;8.33;;;4.53;;
3099;SDS011;1560;52.746;13.474;2023-03-11T17:05:04;11.03;;;6.53;;
3099;SDS011;1560;52.746;13.474;2023-03-11T17:07:35;11.75;;;6.35;;
3099;SDS011;1560;52.746;13.474;2023-03-11T17:10:46;9.45;;;5.42;;
3099;SDS011;1560;52.746;13.474;2023-03-11T17:13:16;11.95;;;4.95;;
3099;SDS011;1560;52.746;13.474;2023-03-11T17:15:45;5.53;;;4.20;;
3099;SDS011;1560;52.746;13.474;2023-03-11T17:21:03;7.00;;;4.53;;
3099;SDS011;1560;52.746;13.474;2023-03-11T17:26:09;7.00;;;3.87;;
3099;SDS011;1560;52.746;13.474;2023-03-11T17:28:39;8.50;;;4.85;;
3099;SDS011;1560;52.746;13.474;2023-03-11T17:31:12;15.28;;;8.70;;
3099;SDS011;1560;52.746;13.474;2023-03-11T17:33:42;13.62;;;8.65;;
3099;SDS011;1560;52.746;13.474;2023-03-11T17:36:13;14.83;;;10.70;;
3099;SDS011;1560;52.746;13.474;2023-03-11T17:38:43;12.55;;;7.10;;
3099;SDS011;1560;52.746;13.474;2023-03-11T17:41:13;10.08;;;6.40;;
3099;SDS011;1560;52.746;13.474;2023-03-11T17:43:44;10.23;;;5.72;;
3099;SDS011;1560;52.746;13.474;2023-03-11T17:46:15;7.70;;;5.10;;
3099;SDS011;1560;52.746;13.474;2023-03-11T17:48:48;10.63;;;8.00;;
3099;SDS011;1560;52.746;13.474;2023-03-11T17:54:09;14.95;;;9.95;;
3099;SDS011;1560;52.746;13.474;2023-03-11T17:56:39;24.20;;;15.38;;
3099;SDS011;1560;52.746;13.474;2023-03-11T17:59:08;25.05;;;15.88;;
3099;SDS011;1560;52.746;13.474;2023-03-11T18:01:46;35.70;;;20.60;;
3099;SDS011;1560;52.746;13.474;2023-03-11T18:04:15;25.85;;;17.55;;
3099;SDS011;1560;52.746;13.474;2023-03-11T18:09:20;39.58;;;22.17;;
3099;SDS011;1560;52.746;13.474;2023-03-11T18:14:25;29.35;;;16.45;;
3099;SDS011;1560;52.746;13.474;2023-03-11T18:16:54;21.73;;;10.72;;
3099;SDS011;1560;52.746;13.474;2023-03-11T18:19:23;12.93;;;8.35;;
3099;SDS011;1560;52.746;13.474;2023-03-11T18:24:28;13.22;;;6.75;;
3099;SDS011;1560;52.746;13.474;2023-03-11T18:26:57;9.43;;;5.55;;
3099;SDS011;1560;52.746;13.474;2023-03-11T18:29:26;14.25;;;7.37;;
3099;SDS011;1560;52.746;13.474;2023-03-11T18:32:04;14.03;;;7.40;;
3099;SDS011;1560;52.746;13.474;2023-03-11T18:34:33;10.25;;;5.83;;
3099;SDS011;1560;52.746;13.474;2023-03-11T18:37:03;11.80;;;7.60;;
3099;SDS011;1560;52.746;13.474;2023-03-11T18:39:32;15.08;;;7.17;;
3099;SDS011;1560;52.746;13.474;2023-03-11T18:44:37;11.38;;;6.00;;
3099;SDS011;1560;52.746;13.474;2023-03-11T18:49:43;7.50;;;4.65;;